UAL2595 EKCH-BIKF
Flight info
| Callsign | UAL2595 |
|---|---|
| Flight time | 3h 6m |
| Altitude | 38000 |
| Route | GOLG2C GOLGA DCT AMSEV DCT GUNPA/M079F400 DCT ING DCT NASBU NASB4K |
| Aircraft | B735/M-SDE2E3FGHIRWXY/LB1 |
Departure
| Time | 2026-04-25 08:26 |
|---|---|
| Airport | Copenhagen Kastrup Airport (EKCH) |
Arrival
| Time | 2026-04-25 11:33 |
|---|---|
| Airport | Keflavik International Airport (BIKF) |
| Time | Latitude | Longitude | Altitude | Speed | Heading |
|---|---|---|---|---|---|
| 2026-04-25 08:05 | 55.62496 | 12.64895 | 23 ft | 0 kts | 89° |
| 2026-04-25 08:15 | 55.62496 | 12.64880 | 23 ft | 4 kts | 89° |
| 2026-04-25 08:15 | 55.62495 | 12.64838 | 23 ft | 2 kts | 89° |
| 2026-04-25 08:15 | 55.62497 | 12.64798 | 24 ft | 4 kts | 120° |
| 2026-04-25 08:16 | 55.62515 | 12.64772 | 25 ft | 4 kts | 176° |
| 2026-04-25 08:16 | 55.62510 | 12.64772 | 26 ft | 4 kts | 179° |
| 2026-04-25 08:16 | 55.62499 | 12.64772 | 23 ft | 2 kts | 179° |
| 2026-04-25 08:21 | 55.62496 | 12.64772 | 23 ft | 1 kts | 179° |
| 2026-04-25 08:21 | 55.62483 | 12.64772 | 25 ft | 3 kts | 181° |
| 2026-04-25 08:21 | 55.62455 | 12.64775 | 23 ft | 5 kts | 178° |
| 2026-04-25 08:22 | 55.62413 | 12.64778 | 25 ft | 7 kts | 177° |
| 2026-04-25 08:22 | 55.62360 | 12.64779 | 23 ft | 9 kts | 187° |
| 2026-04-25 08:22 | 55.62324 | 12.64694 | 25 ft | 9 kts | 250° |
| 2026-04-25 08:22 | 55.62301 | 12.64584 | 25 ft | 10 kts | 246° |
| 2026-04-25 08:23 | 55.62269 | 12.64464 | 22 ft | 11 kts | 244° |
| 2026-04-25 08:23 | 55.62221 | 12.64350 | 20 ft | 12 kts | 214° |
| 2026-04-25 08:23 | 55.62147 | 12.64294 | 22 ft | 11 kts | 202° |
| 2026-04-25 08:23 | 55.62075 | 12.64238 | 23 ft | 11 kts | 204° |
| 2026-04-25 08:24 | 55.62007 | 12.64180 | 23 ft | 11 kts | 206° |
| 2026-04-25 08:24 | 55.61940 | 12.64124 | 23 ft | 10 kts | 206° |
| 2026-04-25 08:24 | 55.61875 | 12.64070 | 23 ft | 10 kts | 201° |
| 2026-04-25 08:24 | 55.61806 | 12.64076 | 25 ft | 10 kts | 175° |
| 2026-04-25 08:25 | 55.61738 | 12.64083 | 23 ft | 10 kts | 179° |
| 2026-04-25 08:25 | 55.61672 | 12.64085 | 28 ft | 9 kts | 180° |
| 2026-04-25 08:25 | 55.61613 | 12.64047 | 27 ft | 9 kts | 221° |
| 2026-04-25 08:25 | 55.61562 | 12.63969 | 25 ft | 12 kts | 220° |
| 2026-04-25 08:26 | 55.61504 | 12.63882 | 28 ft | 27 kts | 220° |
| 2026-04-25 08:26 | 55.61171 | 12.63374 | 27 ft | 88 kts | 221° |
| 2026-04-25 08:26 | 55.60541 | 12.62397 | 104 ft | 144 kts | 229° |
| 2026-04-25 08:26 | 55.59778 | 12.61214 | 783 ft | 151 kts | 229° |
| 2026-04-25 08:27 | 55.58981 | 12.59952 | 1564 ft | 163 kts | 231° |
| 2026-04-25 08:27 | 55.58048 | 12.58431 | 1940 ft | 200 kts | 230° |
| 2026-04-25 08:27 | 55.56921 | 12.56709 | 2369 ft | 223 kts | 227° |
| 2026-04-25 08:27 | 55.56015 | 12.54539 | 2917 ft | 219 kts | 261° |
| 2026-04-25 08:28 | 55.56039 | 12.51846 | 3505 ft | 227 kts | 284° |
| 2026-04-25 08:28 | 55.56326 | 12.49054 | 4419 ft | 232 kts | 283° |
| 2026-04-25 08:28 | 55.56599 | 12.46241 | 5437 ft | 232 kts | 283° |
| 2026-04-25 08:28 | 55.56859 | 12.43435 | 6508 ft | 231 kts | 283° |
| 2026-04-25 08:29 | 55.57113 | 12.40617 | 7440 ft | 234 kts | 282° |
| 2026-04-25 08:29 | 55.57370 | 12.37740 | 8338 ft | 238 kts | 282° |
| 2026-04-25 08:29 | 55.57790 | 12.34948 | 9208 ft | 239 kts | 298° |
| 2026-04-25 08:29 | 55.58823 | 12.32646 | 10105 ft | 243 kts | 316° |
| 2026-04-25 08:30 | 55.60312 | 12.30940 | 10436 ft | 274 kts | 334° |
| 2026-04-25 08:30 | 55.62263 | 12.30249 | 10942 ft | 295 kts | 347° |
| 2026-04-25 08:30 | 55.64334 | 12.29859 | 11696 ft | 302 kts | 348° |
| 2026-04-25 08:30 | 55.66442 | 12.29496 | 12545 ft | 306 kts | 348° |
| 2026-04-25 08:31 | 55.68581 | 12.29125 | 13392 ft | 311 kts | 347° |
| 2026-04-25 08:31 | 55.70753 | 12.28736 | 14244 ft | 314 kts | 347° |
| 2026-04-25 08:31 | 55.72932 | 12.28335 | 15077 ft | 317 kts | 346° |
| 2026-04-25 08:31 | 55.75160 | 12.27917 | 15862 ft | 321 kts | 346° |
| 2026-04-25 08:32 | 55.77362 | 12.27385 | 16618 ft | 322 kts | 339° |
| 2026-04-25 08:32 | 55.79408 | 12.25866 | 17411 ft | 317 kts | 326° |
| 2026-04-25 08:32 | 55.81315 | 12.23874 | 18209 ft | 320 kts | 324° |
| 2026-04-25 08:32 | 55.83215 | 12.21797 | 18899 ft | 324 kts | 323° |
| 2026-04-25 08:33 | 55.85146 | 12.19677 | 19656 ft | 326 kts | 323° |
| 2026-04-25 08:33 | 55.87063 | 12.17587 | 20405 ft | 328 kts | 323° |
| 2026-04-25 08:33 | 55.89022 | 12.15465 | 21132 ft | 331 kts | 324° |
| 2026-04-25 08:33 | 55.91004 | 12.13327 | 21847 ft | 335 kts | 324° |
| 2026-04-25 08:34 | 55.93003 | 12.11171 | 22555 ft | 338 kts | 323° |
| 2026-04-25 08:34 | 55.95028 | 12.08986 | 23255 ft | 341 kts | 323° |
| 2026-04-25 08:34 | 55.97069 | 12.06792 | 23871 ft | 345 kts | 323° |
| 2026-04-25 08:34 | 55.99139 | 12.04566 | 24535 ft | 347 kts | 323° |
| 2026-04-25 08:35 | 56.01197 | 12.02351 | 25285 ft | 345 kts | 323° |
| 2026-04-25 08:35 | 56.03254 | 12.00129 | 25889 ft | 347 kts | 323° |
| 2026-04-25 08:35 | 56.05353 | 11.97922 | 26428 ft | 351 kts | 324° |
| 2026-04-25 08:35 | 56.07483 | 11.95758 | 27026 ft | 354 kts | 324° |
| 2026-04-25 08:36 | 56.09636 | 11.93591 | 27566 ft | 357 kts | 325° |
| 2026-04-25 08:36 | 56.11808 | 11.91404 | 28110 ft | 359 kts | 325° |
| 2026-04-25 08:36 | 56.13995 | 11.89194 | 28633 ft | 362 kts | 325° |
| 2026-04-25 08:36 | 56.16199 | 11.86960 | 29143 ft | 365 kts | 325° |
| 2026-04-25 08:37 | 56.18419 | 11.84704 | 29628 ft | 368 kts | 325° |
| 2026-04-25 08:37 | 56.20635 | 11.82447 | 30070 ft | 371 kts | 325° |
| 2026-04-25 08:37 | 56.22893 | 11.80165 | 30467 ft | 374 kts | 325° |
| 2026-04-25 08:37 | 56.25161 | 11.77857 | 30863 ft | 376 kts | 325° |
| 2026-04-25 08:38 | 56.27457 | 11.75506 | 31242 ft | 378 kts | 325° |
| 2026-04-25 08:38 | 56.29748 | 11.73153 | 31659 ft | 379 kts | 324° |
| 2026-04-25 08:38 | 56.32041 | 11.70789 | 32073 ft | 379 kts | 323° |
| 2026-04-25 08:38 | 56.34127 | 11.67984 | 32376 ft | 375 kts | 311° |
| 2026-04-25 08:39 | 56.35879 | 11.64517 | 32758 ft | 374 kts | 309° |
| 2026-04-25 08:39 | 56.37587 | 11.60994 | 33229 ft | 372 kts | 309° |
| 2026-04-25 08:39 | 56.39280 | 11.57482 | 33693 ft | 370 kts | 309° |
| 2026-04-25 08:39 | 56.40971 | 11.53979 | 34074 ft | 369 kts | 309° |
| 2026-04-25 08:40 | 56.42658 | 11.50493 | 34394 ft | 369 kts | 309° |
| 2026-04-25 08:40 | 56.44353 | 11.46997 | 34613 ft | 371 kts | 309° |
| 2026-04-25 08:40 | 56.46061 | 11.43480 | 34840 ft | 373 kts | 309° |
| 2026-04-25 08:40 | 56.47758 | 11.39988 | 35128 ft | 373 kts | 309° |
| 2026-04-25 08:41 | 56.49473 | 11.36457 | 35376 ft | 374 kts | 309° |
| 2026-04-25 08:41 | 56.51192 | 11.32914 | 35608 ft | 375 kts | 309° |
| 2026-04-25 08:41 | 56.52916 | 11.29357 | 35851 ft | 376 kts | 309° |
| 2026-04-25 08:41 | 56.54642 | 11.25790 | 36091 ft | 377 kts | 309° |
| 2026-04-25 08:42 | 56.56372 | 11.22213 | 36317 ft | 378 kts | 309° |
| 2026-04-25 08:42 | 56.58124 | 11.18582 | 36551 ft | 379 kts | 309° |
| 2026-04-25 08:42 | 56.59842 | 11.15017 | 36775 ft | 379 kts | 309° |
| 2026-04-25 08:42 | 56.61581 | 11.11404 | 37048 ft | 380 kts | 309° |
| 2026-04-25 08:43 | 56.63325 | 11.07773 | 37196 ft | 383 kts | 309° |
| 2026-04-25 08:43 | 56.65079 | 11.04117 | 37388 ft | 384 kts | 309° |
| 2026-04-25 08:43 | 56.66833 | 11.00454 | 37630 ft | 384 kts | 309° |
| 2026-04-25 08:43 | 56.68589 | 10.96784 | 37819 ft | 386 kts | 309° |
| 2026-04-25 08:44 | 56.70358 | 10.93078 | 37830 ft | 390 kts | 309° |
| 2026-04-25 08:44 | 56.73904 | 10.85635 | 37845 ft | 391 kts | 309° |
| 2026-04-25 08:45 | 56.77453 | 10.78163 | 37841 ft | 388 kts | 309° |
| 2026-04-25 08:45 | 56.80974 | 10.70724 | 37842 ft | 386 kts | 309° |
| 2026-04-25 08:46 | 56.84483 | 10.63289 | 37841 ft | 385 kts | 309° |
| 2026-04-25 08:46 | 56.87970 | 10.55877 | 37844 ft | 384 kts | 309° |
| 2026-04-25 08:47 | 56.91447 | 10.48461 | 37839 ft | 384 kts | 309° |
| 2026-04-25 08:47 | 56.94905 | 10.41063 | 37916 ft | 384 kts | 309° |
| 2026-04-25 08:48 | 56.98389 | 10.33588 | 37844 ft | 387 kts | 310° |
| 2026-04-25 08:48 | 57.01879 | 10.26076 | 37854 ft | 387 kts | 310° |
| 2026-04-25 08:49 | 57.05370 | 10.18538 | 37860 ft | 387 kts | 310° |
| 2026-04-25 08:49 | 57.08859 | 10.10980 | 37862 ft | 388 kts | 310° |
| 2026-04-25 08:50 | 57.12351 | 10.03391 | 37869 ft | 387 kts | 310° |
| 2026-04-25 08:50 | 57.15819 | 9.95831 | 37854 ft | 386 kts | 310° |
| 2026-04-25 08:51 | 57.19257 | 9.88310 | 37853 ft | 384 kts | 309° |
| 2026-04-25 08:51 | 57.22721 | 9.80711 | 37854 ft | 382 kts | 309° |
| 2026-04-25 08:52 | 57.26098 | 9.73279 | 37862 ft | 380 kts | 309° |
| 2026-04-25 08:52 | 57.29492 | 9.65784 | 37908 ft | 383 kts | 310° |
| 2026-04-25 08:53 | 57.32949 | 9.58127 | 37864 ft | 387 kts | 310° |
| 2026-04-25 08:53 | 57.36384 | 9.50495 | 37846 ft | 381 kts | 309° |
| 2026-04-25 08:54 | 57.39701 | 9.43100 | 37848 ft | 376 kts | 309° |
| 2026-04-25 08:54 | 57.43036 | 9.35640 | 37860 ft | 374 kts | 309° |
| 2026-04-25 08:55 | 57.46355 | 9.28195 | 37859 ft | 373 kts | 309° |
| 2026-04-25 08:55 | 57.49647 | 9.20787 | 37851 ft | 372 kts | 309° |
| 2026-04-25 08:56 | 57.52955 | 9.13321 | 37861 ft | 374 kts | 309° |
| 2026-04-25 08:56 | 57.56265 | 9.05825 | 37865 ft | 376 kts | 309° |
| 2026-04-25 08:57 | 57.59580 | 8.98294 | 37851 ft | 376 kts | 309° |
| 2026-04-25 08:57 | 57.62731 | 8.91111 | 37895 ft | 378 kts | 309° |
| 2026-04-25 08:58 | 57.66059 | 8.83507 | 37861 ft | 378 kts | 309° |
| 2026-04-25 08:58 | 57.69442 | 8.75838 | 37859 ft | 378 kts | 309° |
| 2026-04-25 08:59 | 57.72830 | 8.68348 | 37871 ft | 377 kts | 309° |
| 2026-04-25 08:59 | 57.76190 | 8.60914 | 37862 ft | 376 kts | 309° |
| 2026-04-25 09:00 | 57.79553 | 8.53433 | 37863 ft | 375 kts | 309° |
| 2026-04-25 09:00 | 57.82896 | 8.45959 | 37867 ft | 373 kts | 309° |
| 2026-04-25 09:01 | 57.86225 | 8.38490 | 37878 ft | 372 kts | 309° |
| 2026-04-25 09:01 | 57.89542 | 8.31023 | 37866 ft | 372 kts | 309° |
| 2026-04-25 09:02 | 57.92853 | 8.23545 | 37875 ft | 372 kts | 309° |
| 2026-04-25 09:02 | 57.96161 | 8.16052 | 37875 ft | 373 kts | 309° |
| 2026-04-25 09:03 | 57.99473 | 8.08523 | 37877 ft | 373 kts | 309° |
| 2026-04-25 09:03 | 58.02783 | 8.00975 | 37871 ft | 374 kts | 309° |
| 2026-04-25 09:04 | 58.06093 | 7.93405 | 37863 ft | 373 kts | 309° |
| 2026-04-25 09:04 | 58.09369 | 7.85888 | 37873 ft | 373 kts | 309° |
| 2026-04-25 09:05 | 58.12684 | 7.78255 | 37875 ft | 373 kts | 309° |
| 2026-04-25 09:05 | 58.15977 | 7.70649 | 37871 ft | 374 kts | 309° |
| 2026-04-25 09:06 | 58.19248 | 7.63072 | 37883 ft | 374 kts | 309° |
| 2026-04-25 09:06 | 58.22538 | 7.55423 | 37886 ft | 374 kts | 309° |
| 2026-04-25 09:07 | 58.25824 | 7.47761 | 37905 ft | 374 kts | 308° |
| 2026-04-25 09:07 | 58.29099 | 7.40097 | 37839 ft | 375 kts | 309° |
| 2026-04-25 09:08 | 58.32381 | 7.32393 | 37901 ft | 375 kts | 309° |
| 2026-04-25 09:08 | 58.35676 | 7.24635 | 37913 ft | 378 kts | 309° |
| 2026-04-25 09:09 | 58.38988 | 7.16807 | 37921 ft | 381 kts | 309° |
| 2026-04-25 09:09 | 58.42317 | 7.08917 | 37925 ft | 383 kts | 309° |
| 2026-04-25 09:10 | 58.45632 | 7.01030 | 37926 ft | 384 kts | 309° |
| 2026-04-25 09:10 | 58.48977 | 6.93047 | 37935 ft | 385 kts | 309° |
| 2026-04-25 09:11 | 58.53987 | 6.81039 | 37886 ft | 383 kts | 309° |
| 2026-04-25 09:11 | 58.57309 | 6.73042 | 37944 ft | 384 kts | 309° |
| 2026-04-25 09:12 | 58.60655 | 6.64963 | 37947 ft | 386 kts | 309° |
| 2026-04-25 09:12 | 58.63983 | 6.56897 | 37947 ft | 388 kts | 309° |
| 2026-04-25 09:13 | 58.66762 | 6.50140 | 37967 ft | 389 kts | 309° |
| 2026-04-25 09:13 | 58.70123 | 6.41945 | 37965 ft | 390 kts | 309° |
| 2026-04-25 09:14 | 58.73483 | 6.33719 | 37957 ft | 390 kts | 309° |
| 2026-04-25 09:14 | 58.76833 | 6.25491 | 37966 ft | 389 kts | 309° |
| 2026-04-25 09:15 | 58.80171 | 6.17264 | 37990 ft | 389 kts | 309° |
| 2026-04-25 09:15 | 58.83505 | 6.09019 | 37999 ft | 390 kts | 309° |
| 2026-04-25 09:16 | 58.86816 | 6.00803 | 37999 ft | 390 kts | 309° |
| 2026-04-25 09:16 | 58.90151 | 5.92498 | 38044 ft | 391 kts | 309° |
| 2026-04-25 09:17 | 58.95150 | 5.79991 | 38001 ft | 391 kts | 309° |
| 2026-04-25 09:18 | 58.98435 | 5.71737 | 38002 ft | 390 kts | 309° |
| 2026-04-25 09:18 | 59.01740 | 5.63404 | 37997 ft | 389 kts | 309° |
| 2026-04-25 09:19 | 59.05033 | 5.55073 | 38007 ft | 388 kts | 308° |
| 2026-04-25 09:19 | 59.08310 | 5.46750 | 38014 ft | 387 kts | 308° |
| 2026-04-25 09:20 | 59.11577 | 5.38424 | 38016 ft | 387 kts | 308° |
| 2026-04-25 09:20 | 59.14853 | 5.30046 | 38029 ft | 387 kts | 308° |
| 2026-04-25 09:21 | 59.18086 | 5.21750 | 38029 ft | 387 kts | 308° |
| 2026-04-25 09:21 | 59.21340 | 5.13369 | 37977 ft | 387 kts | 308° |
| 2026-04-25 09:22 | 59.24587 | 5.04975 | 38028 ft | 387 kts | 309° |
| 2026-04-25 09:22 | 59.27836 | 4.96546 | 38026 ft | 388 kts | 309° |
| 2026-04-25 09:23 | 59.31060 | 4.88154 | 38030 ft | 388 kts | 308° |
| 2026-04-25 09:23 | 59.34302 | 4.79684 | 38026 ft | 389 kts | 308° |
| 2026-04-25 09:24 | 59.37534 | 4.71210 | 38034 ft | 389 kts | 308° |
| 2026-04-25 09:24 | 59.40770 | 4.62694 | 38057 ft | 389 kts | 308° |
| 2026-04-25 09:25 | 59.44003 | 4.54154 | 38051 ft | 389 kts | 308° |
| 2026-04-25 09:25 | 59.47224 | 4.45614 | 38043 ft | 388 kts | 309° |
| 2026-04-25 09:26 | 59.50418 | 4.37117 | 38063 ft | 388 kts | 309° |
| 2026-04-25 09:26 | 59.53619 | 4.28570 | 38111 ft | 388 kts | 309° |
| 2026-04-25 09:27 | 59.56822 | 4.19988 | 38079 ft | 389 kts | 309° |
| 2026-04-25 09:27 | 59.60021 | 4.11382 | 38084 ft | 389 kts | 309° |
| 2026-04-25 09:28 | 59.63214 | 4.02764 | 38070 ft | 389 kts | 309° |
| 2026-04-25 09:28 | 59.66400 | 3.94130 | 38067 ft | 389 kts | 309° |
| 2026-04-25 09:29 | 59.69576 | 3.85493 | 38077 ft | 387 kts | 309° |
| 2026-04-25 09:29 | 59.72724 | 3.76900 | 38085 ft | 387 kts | 309° |
| 2026-04-25 09:30 | 59.75880 | 3.68254 | 38086 ft | 387 kts | 309° |
| 2026-04-25 09:30 | 59.79030 | 3.59593 | 38100 ft | 387 kts | 309° |
| 2026-04-25 09:31 | 59.82174 | 3.50915 | 38102 ft | 387 kts | 309° |
| 2026-04-25 09:31 | 59.85315 | 3.42216 | 38126 ft | 388 kts | 309° |
| 2026-04-25 09:32 | 59.88467 | 3.33450 | 38111 ft | 388 kts | 309° |
| 2026-04-25 09:32 | 59.91598 | 3.24710 | 38089 ft | 386 kts | 310° |
| 2026-04-25 09:33 | 59.94683 | 3.16068 | 38107 ft | 386 kts | 310° |
| 2026-04-25 09:33 | 59.97787 | 3.07342 | 38115 ft | 385 kts | 310° |
| 2026-04-25 09:34 | 60.00881 | 2.98609 | 38115 ft | 385 kts | 310° |
| 2026-04-25 09:34 | 60.03969 | 2.89862 | 38123 ft | 385 kts | 309° |
| 2026-04-25 09:35 | 60.07058 | 2.81080 | 38125 ft | 385 kts | 309° |
| 2026-04-25 09:35 | 60.10113 | 2.72361 | 38125 ft | 385 kts | 309° |
| 2026-04-25 09:36 | 60.13183 | 2.63566 | 38082 ft | 385 kts | 310° |
| 2026-04-25 09:36 | 60.16241 | 2.54771 | 38128 ft | 384 kts | 310° |
| 2026-04-25 09:37 | 60.19302 | 2.45936 | 38133 ft | 384 kts | 310° |
| 2026-04-25 09:37 | 60.22350 | 2.37105 | 38153 ft | 384 kts | 310° |
| 2026-04-25 09:38 | 60.25386 | 2.28276 | 38128 ft | 384 kts | 310° |
| 2026-04-25 09:38 | 60.28418 | 2.19422 | 38133 ft | 384 kts | 310° |
| 2026-04-25 09:39 | 60.31445 | 2.10553 | 38164 ft | 384 kts | 310° |
| 2026-04-25 09:39 | 60.34450 | 2.01711 | 38150 ft | 384 kts | 310° |
| 2026-04-25 09:40 | 60.38957 | 1.88388 | 38157 ft | 382 kts | 310° |
| 2026-04-25 09:40 | 60.41954 | 1.79491 | 38168 ft | 383 kts | 310° |
| 2026-04-25 09:41 | 60.44944 | 1.70578 | 38169 ft | 383 kts | 310° |
| 2026-04-25 09:41 | 60.47934 | 1.61629 | 38183 ft | 383 kts | 310° |
| 2026-04-25 09:42 | 60.50919 | 1.52661 | 38175 ft | 383 kts | 310° |
| 2026-04-25 09:42 | 60.53894 | 1.43687 | 38172 ft | 383 kts | 310° |
| 2026-04-25 09:43 | 60.56861 | 1.34703 | 38120 ft | 382 kts | 310° |
| 2026-04-25 09:43 | 60.59811 | 1.25735 | 38174 ft | 381 kts | 310° |
| 2026-04-25 09:44 | 60.62750 | 1.16769 | 38186 ft | 380 kts | 310° |
| 2026-04-25 09:44 | 60.65668 | 1.07833 | 38194 ft | 380 kts | 310° |
| 2026-04-25 09:45 | 60.68587 | 0.98859 | 38197 ft | 380 kts | 310° |
| 2026-04-25 09:45 | 60.71507 | 0.89845 | 38197 ft | 381 kts | 310° |
| 2026-04-25 09:46 | 60.74440 | 0.80758 | 38202 ft | 381 kts | 310° |
| 2026-04-25 09:46 | 60.77354 | 0.71692 | 38208 ft | 381 kts | 310° |
| 2026-04-25 09:47 | 60.80260 | 0.62616 | 38192 ft | 380 kts | 310° |
| 2026-04-25 09:47 | 60.83149 | 0.53554 | 38208 ft | 380 kts | 310° |
| 2026-04-25 09:48 | 60.86031 | 0.44483 | 38209 ft | 379 kts | 310° |
| 2026-04-25 09:48 | 60.88907 | 0.35396 | 38214 ft | 379 kts | 310° |
| 2026-04-25 09:49 | 60.91775 | 0.26298 | 38219 ft | 379 kts | 310° |
| 2026-04-25 09:49 | 60.94636 | 0.17183 | 38218 ft | 379 kts | 310° |
| 2026-04-25 09:50 | 60.97493 | 0.08055 | 38221 ft | 379 kts | 310° |
| 2026-04-25 09:50 | 61.00284 | -0.01045 | 38200 ft | 382 kts | 307° |
| 2026-04-25 09:51 | 61.02745 | -0.10779 | 38216 ft | 383 kts | 305° |
| 2026-04-25 09:51 | 61.05161 | -0.20648 | 38251 ft | 384 kts | 304° |
| 2026-04-25 09:52 | 61.07575 | -0.30515 | 38235 ft | 385 kts | 304° |
| 2026-04-25 09:52 | 61.09994 | -0.40400 | 38232 ft | 385 kts | 304° |
| 2026-04-25 09:53 | 61.12406 | -0.50281 | 38228 ft | 384 kts | 304° |
| 2026-04-25 09:53 | 61.14813 | -0.60172 | 38235 ft | 384 kts | 304° |
| 2026-04-25 09:54 | 61.17191 | -0.69988 | 38238 ft | 384 kts | 304° |
| 2026-04-25 09:54 | 61.19576 | -0.79877 | 38238 ft | 383 kts | 304° |
| 2026-04-25 09:55 | 61.21955 | -0.89785 | 38242 ft | 383 kts | 304° |
| 2026-04-25 09:55 | 61.24321 | -0.99685 | 38245 ft | 383 kts | 304° |
| 2026-04-25 09:56 | 61.26671 | -1.09561 | 38243 ft | 383 kts | 304° |
| 2026-04-25 09:56 | 61.29023 | -1.19493 | 38253 ft | 383 kts | 304° |
| 2026-04-25 09:57 | 61.31367 | -1.29434 | 38252 ft | 383 kts | 304° |
| 2026-04-25 09:57 | 61.33704 | -1.39396 | 38274 ft | 383 kts | 304° |
| 2026-04-25 09:58 | 61.36018 | -1.49302 | 38256 ft | 383 kts | 303° |
| 2026-04-25 09:58 | 61.38343 | -1.59299 | 38264 ft | 383 kts | 303° |
| 2026-04-25 09:59 | 61.40666 | -1.69337 | 38271 ft | 385 kts | 303° |
| 2026-04-25 09:59 | 61.42989 | -1.79417 | 38271 ft | 386 kts | 303° |
| 2026-04-25 10:00 | 61.45309 | -1.89539 | 38277 ft | 386 kts | 303° |
| 2026-04-25 10:00 | 61.47631 | -1.99717 | 38286 ft | 387 kts | 303° |
| 2026-04-25 10:01 | 61.49952 | -2.09939 | 38275 ft | 388 kts | 303° |
| 2026-04-25 10:01 | 61.52258 | -2.20140 | 38274 ft | 387 kts | 302° |
| 2026-04-25 10:02 | 61.54173 | -2.28649 | 38284 ft | 389 kts | 302° |
| 2026-04-25 10:02 | 61.56475 | -2.38923 | 38285 ft | 390 kts | 302° |
| 2026-04-25 10:03 | 61.58771 | -2.49221 | 38287 ft | 391 kts | 302° |
| 2026-04-25 10:03 | 61.61073 | -2.59596 | 38296 ft | 392 kts | 302° |
| 2026-04-25 10:04 | 61.63372 | -2.70012 | 38295 ft | 393 kts | 302° |
| 2026-04-25 10:04 | 61.65655 | -2.80407 | 38293 ft | 393 kts | 302° |
| 2026-04-25 10:05 | 61.67940 | -2.90863 | 38287 ft | 393 kts | 301° |
| 2026-04-25 10:05 | 61.70218 | -3.01335 | 38299 ft | 394 kts | 301° |
| 2026-04-25 10:06 | 61.72505 | -3.11896 | 38295 ft | 396 kts | 301° |
| 2026-04-25 10:06 | 61.74771 | -3.22418 | 38318 ft | 397 kts | 301° |
| 2026-04-25 10:07 | 61.77049 | -3.33052 | 38317 ft | 398 kts | 300° |
| 2026-04-25 10:07 | 61.79326 | -3.43736 | 38313 ft | 399 kts | 300° |
| 2026-04-25 10:08 | 61.81603 | -3.54472 | 38309 ft | 399 kts | 300° |
| 2026-04-25 10:08 | 61.83865 | -3.65199 | 38309 ft | 399 kts | 300° |
| 2026-04-25 10:09 | 61.86118 | -3.75930 | 38321 ft | 400 kts | 299° |
| 2026-04-25 10:09 | 61.88379 | -3.86759 | 38331 ft | 401 kts | 299° |
| 2026-04-25 10:10 | 61.90632 | -3.97605 | 38327 ft | 402 kts | 299° |
| 2026-04-25 10:10 | 61.92862 | -4.08400 | 38325 ft | 402 kts | 299° |
| 2026-04-25 10:11 | 61.95097 | -4.19275 | 38326 ft | 401 kts | 299° |
| 2026-04-25 10:11 | 61.97330 | -4.30203 | 38325 ft | 401 kts | 299° |
| 2026-04-25 10:12 | 61.99532 | -4.41030 | 38328 ft | 400 kts | 298° |
| 2026-04-25 10:13 | 62.02841 | -4.57405 | 38343 ft | 402 kts | 298° |
| 2026-04-25 10:13 | 62.05047 | -4.68397 | 38343 ft | 404 kts | 298° |
| 2026-04-25 10:14 | 62.07253 | -4.79449 | 38343 ft | 406 kts | 298° |
| 2026-04-25 10:14 | 62.09445 | -4.90497 | 38338 ft | 407 kts | 298° |
| 2026-04-25 10:15 | 62.11644 | -5.01639 | 38346 ft | 407 kts | 298° |
| 2026-04-25 10:15 | 62.13836 | -5.12804 | 38357 ft | 407 kts | 297° |
| 2026-04-25 10:16 | 62.16021 | -5.23999 | 38348 ft | 408 kts | 297° |
| 2026-04-25 10:16 | 62.18199 | -5.35219 | 38348 ft | 408 kts | 297° |
| 2026-04-25 10:17 | 62.20368 | -5.46456 | 38351 ft | 408 kts | 297° |
| 2026-04-25 10:17 | 62.22527 | -5.57707 | 38351 ft | 408 kts | 297° |
| 2026-04-25 10:18 | 62.24676 | -5.68963 | 38353 ft | 408 kts | 296° |
| 2026-04-25 10:18 | 62.26814 | -5.80227 | 38355 ft | 407 kts | 296° |
| 2026-04-25 10:19 | 62.28941 | -5.91499 | 38354 ft | 407 kts | 296° |
| 2026-04-25 10:19 | 62.31064 | -6.02811 | 38360 ft | 409 kts | 296° |
| 2026-04-25 10:20 | 62.33177 | -6.14138 | 38365 ft | 411 kts | 296° |
| 2026-04-25 10:20 | 62.35301 | -6.25586 | 38362 ft | 413 kts | 295° |
| 2026-04-25 10:21 | 62.37424 | -6.37100 | 38360 ft | 414 kts | 295° |
| 2026-04-25 10:21 | 62.39542 | -6.48658 | 38367 ft | 415 kts | 295° |
| 2026-04-25 10:22 | 62.41649 | -6.60226 | 38323 ft | 414 kts | 295° |
| 2026-04-25 10:22 | 62.43729 | -6.71709 | 38354 ft | 412 kts | 295° |
| 2026-04-25 10:23 | 62.45806 | -6.83245 | 38362 ft | 412 kts | 294° |
| 2026-04-25 10:23 | 62.47873 | -6.94791 | 38358 ft | 411 kts | 294° |
| 2026-04-25 10:24 | 62.49929 | -7.06347 | 38362 ft | 412 kts | 294° |
| 2026-04-25 10:24 | 62.51976 | -7.17923 | 38365 ft | 412 kts | 294° |
| 2026-04-25 10:25 | 62.54015 | -7.29524 | 38365 ft | 412 kts | 294° |
| 2026-04-25 10:25 | 62.56053 | -7.41189 | 38346 ft | 413 kts | 294° |
| 2026-04-25 10:26 | 62.58080 | -7.52860 | 38364 ft | 414 kts | 294° |
| 2026-04-25 10:26 | 62.60100 | -7.64564 | 38367 ft | 415 kts | 294° |
| 2026-04-25 10:27 | 62.62109 | -7.76278 | 38384 ft | 416 kts | 293° |
| 2026-04-25 10:27 | 62.64120 | -7.88077 | 38366 ft | 416 kts | 293° |
| 2026-04-25 10:28 | 62.66122 | -7.99902 | 38366 ft | 416 kts | 293° |
| 2026-04-25 10:28 | 62.68101 | -8.11666 | 38374 ft | 415 kts | 293° |
| 2026-04-25 10:29 | 62.70080 | -8.23502 | 38380 ft | 414 kts | 293° |
| 2026-04-25 10:29 | 62.72028 | -8.35225 | 38370 ft | 414 kts | 293° |
| 2026-04-25 10:30 | 62.73987 | -8.47087 | 38372 ft | 413 kts | 293° |
| 2026-04-25 10:30 | 62.75916 | -8.58847 | 38379 ft | 413 kts | 292° |
| 2026-04-25 10:31 | 62.77839 | -8.70646 | 38379 ft | 412 kts | 292° |
| 2026-04-25 10:31 | 62.79751 | -8.82451 | 38376 ft | 412 kts | 292° |
| 2026-04-25 10:32 | 62.81653 | -8.94269 | 38381 ft | 412 kts | 292° |
| 2026-04-25 10:32 | 62.83550 | -9.06138 | 38376 ft | 413 kts | 292° |
| 2026-04-25 10:33 | 62.85436 | -9.18007 | 38386 ft | 415 kts | 291° |
| 2026-04-25 10:33 | 62.87314 | -9.29912 | 38379 ft | 416 kts | 291° |
| 2026-04-25 10:34 | 62.89196 | -9.41920 | 38381 ft | 417 kts | 291° |
| 2026-04-25 10:34 | 62.91070 | -9.53962 | 38378 ft | 417 kts | 291° |
| 2026-04-25 10:35 | 62.92935 | -9.66029 | 38378 ft | 417 kts | 291° |
| 2026-04-25 10:35 | 62.94790 | -9.78107 | 38358 ft | 417 kts | 290° |
| 2026-04-25 10:36 | 62.96634 | -9.90195 | 38384 ft | 417 kts | 290° |
| 2026-04-25 10:36 | 62.98471 | -10.02323 | 38383 ft | 418 kts | 290° |
| 2026-04-25 10:37 | 63.00289 | -10.14412 | 38379 ft | 420 kts | 290° |
| 2026-04-25 10:37 | 63.02114 | -10.26626 | 38382 ft | 420 kts | 290° |
| 2026-04-25 10:38 | 63.03932 | -10.38883 | 38384 ft | 421 kts | 290° |
| 2026-04-25 10:38 | 63.05746 | -10.51200 | 38395 ft | 421 kts | 289° |
| 2026-04-25 10:39 | 63.07544 | -10.63495 | 38367 ft | 421 kts | 289° |
| 2026-04-25 10:39 | 63.09328 | -10.75786 | 38382 ft | 420 kts | 289° |
| 2026-04-25 10:40 | 63.11088 | -10.87992 | 38383 ft | 420 kts | 289° |
| 2026-04-25 10:40 | 63.12852 | -11.00323 | 38388 ft | 420 kts | 289° |
| 2026-04-25 10:41 | 63.14601 | -11.12631 | 38390 ft | 420 kts | 288° |
| 2026-04-25 10:41 | 63.16339 | -11.24956 | 38383 ft | 420 kts | 288° |
| 2026-04-25 10:42 | 63.18067 | -11.37296 | 38384 ft | 420 kts | 288° |
| 2026-04-25 10:42 | 63.19784 | -11.49654 | 38378 ft | 420 kts | 288° |
| 2026-04-25 10:43 | 63.21494 | -11.62050 | 38393 ft | 421 kts | 288° |
| 2026-04-25 10:43 | 63.23187 | -11.74414 | 38382 ft | 423 kts | 288° |
| 2026-04-25 10:44 | 63.24888 | -11.86939 | 38400 ft | 423 kts | 287° |
| 2026-04-25 10:44 | 63.26579 | -11.99478 | 38385 ft | 424 kts | 287° |
| 2026-04-25 10:45 | 63.28252 | -12.11984 | 38386 ft | 424 kts | 287° |
| 2026-04-25 10:45 | 63.29921 | -12.24553 | 38375 ft | 424 kts | 287° |
| 2026-04-25 10:46 | 63.31581 | -12.37155 | 38383 ft | 423 kts | 286° |
| 2026-04-25 10:46 | 63.33224 | -12.49728 | 38389 ft | 423 kts | 286° |
| 2026-04-25 10:47 | 63.34863 | -12.62367 | 38387 ft | 423 kts | 286° |
| 2026-04-25 10:47 | 63.36484 | -12.74970 | 38373 ft | 423 kts | 286° |
| 2026-04-25 10:48 | 63.38083 | -12.87502 | 38385 ft | 423 kts | 286° |
| 2026-04-25 10:48 | 63.39683 | -13.00142 | 38387 ft | 423 kts | 286° |
| 2026-04-25 10:49 | 63.41266 | -13.12744 | 38362 ft | 423 kts | 285° |
| 2026-04-25 10:49 | 63.42846 | -13.25430 | 38381 ft | 425 kts | 285° |
| 2026-04-25 10:50 | 63.44417 | -13.38154 | 38450 ft | 431 kts | 285° |
| 2026-04-25 10:50 | 63.45218 | -13.44679 | 38658 ft | 432 kts | 285° |
| 2026-04-25 10:50 | 63.46011 | -13.51166 | 38852 ft | 433 kts | 285° |
| 2026-04-25 10:50 | 63.46802 | -13.57664 | 39154 ft | 432 kts | 284° |
| 2026-04-25 10:51 | 63.47585 | -13.64122 | 39456 ft | 429 kts | 284° |
| 2026-04-25 10:51 | 63.48367 | -13.70601 | 39632 ft | 430 kts | 285° |
| 2026-04-25 10:51 | 63.49134 | -13.76988 | 39813 ft | 430 kts | 284° |
| 2026-04-25 10:51 | 63.49905 | -13.83429 | 40124 ft | 428 kts | 284° |
| 2026-04-25 10:52 | 63.50675 | -13.89897 | 40164 ft | 432 kts | 284° |
| 2026-04-25 10:52 | 63.51446 | -13.96396 | 40370 ft | 431 kts | 284° |
| 2026-04-25 10:52 | 63.52217 | -14.02927 | 40364 ft | 436 kts | 284° |
| 2026-04-25 10:53 | 63.53770 | -14.16165 | 40379 ft | 437 kts | 283° |
| 2026-04-25 10:53 | 63.55033 | -14.27016 | 40369 ft | 432 kts | 284° |
| 2026-04-25 10:54 | 63.56537 | -14.40042 | 40384 ft | 429 kts | 284° |
| 2026-04-25 10:54 | 63.58023 | -14.53041 | 40392 ft | 433 kts | 283° |
| 2026-04-25 10:55 | 63.59512 | -14.66174 | 40378 ft | 437 kts | 283° |
| 2026-04-25 10:55 | 63.60999 | -14.79410 | 40391 ft | 436 kts | 283° |
| 2026-04-25 10:56 | 63.62470 | -14.92628 | 40385 ft | 435 kts | 282° |
| 2026-04-25 10:56 | 63.63927 | -15.05841 | 40377 ft | 435 kts | 282° |
| 2026-04-25 10:57 | 63.65369 | -15.19039 | 40376 ft | 434 kts | 282° |
| 2026-04-25 10:57 | 63.66796 | -15.32231 | 40376 ft | 433 kts | 282° |
| 2026-04-25 10:58 | 63.68208 | -15.45408 | 40378 ft | 432 kts | 282° |
| 2026-04-25 10:58 | 63.69602 | -15.58537 | 40379 ft | 432 kts | 282° |
| 2026-04-25 10:59 | 63.70986 | -15.71701 | 40387 ft | 433 kts | 280° |
| 2026-04-25 10:59 | 63.72366 | -15.84950 | 40384 ft | 433 kts | 281° |
| 2026-04-25 11:00 | 63.73733 | -15.98210 | 40381 ft | 434 kts | 280° |
| 2026-04-25 11:00 | 63.75055 | -16.11160 | 40385 ft | 434 kts | 280° |
| 2026-04-25 11:01 | 63.76395 | -16.24411 | 40384 ft | 435 kts | 280° |
| 2026-04-25 11:01 | 63.77731 | -16.37752 | 40381 ft | 435 kts | 280° |
| 2026-04-25 11:02 | 63.79067 | -16.51215 | 40385 ft | 436 kts | 280° |
| 2026-04-25 11:02 | 63.80352 | -16.64519 | 40383 ft | 435 kts | 277° |
| 2026-04-25 11:03 | 63.81130 | -16.78073 | 40387 ft | 434 kts | 273° |
| 2026-04-25 11:03 | 63.81764 | -16.91730 | 40377 ft | 434 kts | 274° |
| 2026-04-25 11:04 | 63.82399 | -17.05318 | 40373 ft | 434 kts | 274° |
| 2026-04-25 11:04 | 63.83047 | -17.18920 | 40376 ft | 434 kts | 274° |
| 2026-04-25 11:05 | 63.83691 | -17.32511 | 40371 ft | 434 kts | 274° |
| 2026-04-25 11:05 | 63.84326 | -17.46128 | 40372 ft | 434 kts | 273° |
| 2026-04-25 11:06 | 63.84946 | -17.59724 | 40374 ft | 434 kts | 273° |
| 2026-04-25 11:06 | 63.85551 | -17.73282 | 40365 ft | 434 kts | 273° |
| 2026-04-25 11:07 | 63.86141 | -17.86794 | 40372 ft | 434 kts | 272° |
| 2026-04-25 11:07 | 63.86723 | -18.00443 | 40385 ft | 434 kts | 273° |
| 2026-04-25 11:08 | 63.87291 | -18.14042 | 40366 ft | 434 kts | 273° |
| 2026-04-25 11:08 | 63.87848 | -18.27703 | 40357 ft | 434 kts | 272° |
| 2026-04-25 11:09 | 63.88391 | -18.41335 | 40340 ft | 434 kts | 272° |
| 2026-04-25 11:09 | 63.88660 | -18.48221 | 39819 ft | 441 kts | 272° |
| 2026-04-25 11:09 | 63.88924 | -18.55082 | 39252 ft | 440 kts | 272° |
| 2026-04-25 11:09 | 63.89191 | -18.62073 | 38519 ft | 439 kts | 271° |
| 2026-04-25 11:10 | 63.89449 | -18.68897 | 37791 ft | 437 kts | 271° |
| 2026-04-25 11:10 | 63.89622 | -18.73524 | 37333 ft | 436 kts | 271° |
| 2026-04-25 11:10 | 63.89957 | -18.82639 | 36400 ft | 434 kts | 271° |
| 2026-04-25 11:10 | 63.90205 | -18.89470 | 35661 ft | 434 kts | 271° |
| 2026-04-25 11:11 | 63.90449 | -18.96320 | 34892 ft | 435 kts | 271° |
| 2026-04-25 11:11 | 63.90689 | -19.03123 | 34066 ft | 437 kts | 270° |
| 2026-04-25 11:11 | 63.90928 | -19.10012 | 33143 ft | 438 kts | 270° |
| 2026-04-25 11:11 | 63.91164 | -19.16920 | 32372 ft | 437 kts | 270° |
| 2026-04-25 11:12 | 63.91394 | -19.23698 | 31784 ft | 432 kts | 270° |
| 2026-04-25 11:12 | 63.91624 | -19.30543 | 31167 ft | 428 kts | 270° |
| 2026-04-25 11:12 | 63.91843 | -19.37188 | 30581 ft | 424 kts | 270° |
| 2026-04-25 11:12 | 63.92062 | -19.43908 | 29915 ft | 420 kts | 270° |
| 2026-04-25 11:13 | 63.92271 | -19.50457 | 29287 ft | 415 kts | 270° |
| 2026-04-25 11:13 | 63.92476 | -19.56952 | 28694 ft | 410 kts | 270° |
| 2026-04-25 11:13 | 63.92677 | -19.63447 | 28105 ft | 406 kts | 270° |
| 2026-04-25 11:13 | 63.92872 | -19.69818 | 27507 ft | 403 kts | 270° |
| 2026-04-25 11:14 | 63.93060 | -19.76081 | 26925 ft | 399 kts | 270° |
| 2026-04-25 11:14 | 63.93247 | -19.82415 | 26346 ft | 396 kts | 270° |
| 2026-04-25 11:14 | 63.93428 | -19.88580 | 25813 ft | 393 kts | 270° |
| 2026-04-25 11:14 | 63.93607 | -19.94813 | 25250 ft | 390 kts | 270° |
| 2026-04-25 11:15 | 63.93781 | -20.00901 | 24695 ft | 388 kts | 270° |
| 2026-04-25 11:15 | 63.93952 | -20.07008 | 24141 ft | 386 kts | 270° |
| 2026-04-25 11:15 | 63.94122 | -20.13153 | 23516 ft | 384 kts | 270° |
| 2026-04-25 11:15 | 63.94286 | -20.19146 | 22914 ft | 381 kts | 270° |
| 2026-04-25 11:16 | 63.94604 | -20.31027 | 21811 ft | 373 kts | 270° |
| 2026-04-25 11:16 | 63.94754 | -20.36800 | 21277 ft | 369 kts | 270° |
| 2026-04-25 11:16 | 63.94908 | -20.42649 | 20740 ft | 366 kts | 270° |
| 2026-04-25 11:17 | 63.95059 | -20.48368 | 20222 ft | 363 kts | 270° |
| 2026-04-25 11:17 | 63.95207 | -20.54076 | 19713 ft | 360 kts | 271° |
| 2026-04-25 11:17 | 63.95353 | -20.59769 | 19202 ft | 357 kts | 271° |
| 2026-04-25 11:17 | 63.95568 | -20.65388 | 18663 ft | 357 kts | 278° |
| 2026-04-25 11:18 | 63.96172 | -20.70801 | 18054 ft | 357 kts | 283° |
| 2026-04-25 11:18 | 63.96866 | -20.76285 | 17503 ft | 354 kts | 284° |
| 2026-04-25 11:18 | 63.97543 | -20.81587 | 17004 ft | 350 kts | 282° |
| 2026-04-25 11:18 | 63.98210 | -20.86866 | 16563 ft | 345 kts | 283° |
| 2026-04-25 11:19 | 63.98865 | -20.92120 | 16018 ft | 344 kts | 283° |
| 2026-04-25 11:19 | 63.99507 | -20.97326 | 15682 ft | 337 kts | 282° |
| 2026-04-25 11:19 | 64.00132 | -21.02445 | 15141 ft | 336 kts | 282° |
| 2026-04-25 11:19 | 64.00751 | -21.07560 | 14708 ft | 333 kts | 282° |
| 2026-04-25 11:20 | 64.01360 | -21.12609 | 14267 ft | 326 kts | 282° |
| 2026-04-25 11:20 | 64.01950 | -21.17529 | 13514 ft | 320 kts | 283° |
| 2026-04-25 11:20 | 64.02537 | -21.22452 | 12655 ft | 321 kts | 283° |
| 2026-04-25 11:20 | 64.03121 | -21.27354 | 12042 ft | 312 kts | 283° |
| 2026-04-25 11:21 | 64.03675 | -21.32015 | 11558 ft | 302 kts | 282° |
| 2026-04-25 11:21 | 64.04212 | -21.36569 | 11115 ft | 301 kts | 283° |
| 2026-04-25 11:21 | 64.04755 | -21.41181 | 10728 ft | 299 kts | 283° |
| 2026-04-25 11:21 | 64.05280 | -21.45649 | 10617 ft | 287 kts | 283° |
| 2026-04-25 11:22 | 64.05787 | -21.49967 | 10491 ft | 276 kts | 283° |
| 2026-04-25 11:22 | 64.06114 | -21.52757 | 10414 ft | 270 kts | 283° |
| 2026-04-25 11:22 | 64.06750 | -21.58215 | 10040 ft | 266 kts | 283° |
| 2026-04-25 11:22 | 64.07228 | -21.62340 | 9668 ft | 268 kts | 283° |
| 2026-04-25 11:23 | 64.07707 | -21.66464 | 9338 ft | 268 kts | 282° |
| 2026-04-25 11:23 | 64.08181 | -21.70574 | 9042 ft | 267 kts | 283° |
| 2026-04-25 11:23 | 64.08655 | -21.74696 | 8712 ft | 268 kts | 282° |
| 2026-04-25 11:23 | 64.09128 | -21.78811 | 8366 ft | 267 kts | 283° |
| 2026-04-25 11:24 | 64.09597 | -21.82905 | 8037 ft | 265 kts | 283° |
| 2026-04-25 11:24 | 64.10060 | -21.86968 | 7707 ft | 264 kts | 283° |
| 2026-04-25 11:24 | 64.10522 | -21.91018 | 7389 ft | 262 kts | 283° |
| 2026-04-25 11:24 | 64.10980 | -21.95048 | 7052 ft | 261 kts | 283° |
| 2026-04-25 11:25 | 64.11435 | -21.99057 | 6767 ft | 259 kts | 283° |
| 2026-04-25 11:25 | 64.11883 | -22.03019 | 6453 ft | 257 kts | 283° |
| 2026-04-25 11:25 | 64.12331 | -22.06985 | 6124 ft | 256 kts | 282° |
| 2026-04-25 11:25 | 64.12774 | -22.10919 | 5781 ft | 255 kts | 281° |
| 2026-04-25 11:26 | 64.13215 | -22.14849 | 5463 ft | 254 kts | 280° |
| 2026-04-25 11:26 | 64.13653 | -22.18768 | 5150 ft | 254 kts | 279° |
| 2026-04-25 11:26 | 64.14088 | -22.22686 | 4816 ft | 254 kts | 280° |
| 2026-04-25 11:26 | 64.14526 | -22.26603 | 4504 ft | 254 kts | 279° |
| 2026-04-25 11:27 | 64.14962 | -22.30519 | 4202 ft | 253 kts | 277° |
| 2026-04-25 11:27 | 64.15387 | -22.34390 | 3989 ft | 250 kts | 279° |
| 2026-04-25 11:27 | 64.15808 | -22.38195 | 3867 ft | 243 kts | 278° |
| 2026-04-25 11:27 | 64.16080 | -22.40673 | 3787 ft | 238 kts | 276° |
| 2026-04-25 11:28 | 64.15869 | -22.45412 | 3599 ft | 220 kts | 241° |
| 2026-04-25 11:28 | 64.15337 | -22.48709 | 3553 ft | 218 kts | 243° |
| 2026-04-25 11:28 | 64.14836 | -22.51900 | 3538 ft | 206 kts | 243° |
| 2026-04-25 11:28 | 64.14372 | -22.54872 | 3534 ft | 189 kts | 241° |
| 2026-04-25 11:29 | 64.13949 | -22.57560 | 3512 ft | 169 kts | 239° |
| 2026-04-25 11:29 | 64.13307 | -22.59292 | 3510 ft | 128 kts | 189° |
| 2026-04-25 11:29 | 64.12451 | -22.59435 | 3396 ft | 136 kts | 184° |
| 2026-04-25 11:29 | 64.11401 | -22.59933 | 3085 ft | 165 kts | 187° |
| 2026-04-25 11:30 | 64.10236 | -22.60242 | 2728 ft | 169 kts | 180° |
| 2026-04-25 11:30 | 64.09082 | -22.60395 | 2413 ft | 165 kts | 180° |
| 2026-04-25 11:30 | 64.07933 | -22.60530 | 2039 ft | 162 kts | 178° |
| 2026-04-25 11:30 | 64.06803 | -22.60549 | 1671 ft | 155 kts | 177° |
| 2026-04-25 11:31 | 64.05795 | -22.60550 | 1438 ft | 138 kts | 176° |
| 2026-04-25 11:31 | 64.04894 | -22.60542 | 1358 ft | 121 kts | 176° |
| 2026-04-25 11:31 | 64.04077 | -22.60539 | 1199 ft | 111 kts | 176° |
| 2026-04-25 11:31 | 64.03241 | -22.60535 | 1033 ft | 131 kts | 176° |
| 2026-04-25 11:32 | 64.02322 | -22.60536 | 861 ft | 132 kts | 177° |
| 2026-04-25 11:32 | 64.01419 | -22.60538 | 675 ft | 128 kts | 178° |
| 2026-04-25 11:32 | 64.00560 | -22.60542 | 514 ft | 123 kts | 177° |
| 2026-04-25 11:32 | 63.99699 | -22.60546 | 333 ft | 121 kts | 178° |
| 2026-04-25 11:33 | 63.98910 | -22.60548 | 208 ft | 106 kts | 179° |
| 2026-04-25 11:33 | 63.98265 | -22.60538 | 172 ft | 74 kts | 180° |
| 2026-04-25 11:33 | 63.97906 | -22.60535 | 169 ft | 29 kts | 179° |
| 2026-04-25 11:33 | 63.97797 | -22.60538 | 171 ft | 12 kts | 180° |
| 2026-04-25 11:34 | 63.97718 | -22.60536 | 171 ft | 11 kts | 179° |
| 2026-04-25 11:34 | 63.97630 | -22.60538 | 172 ft | 14 kts | 182° |
| 2026-04-25 11:34 | 63.97531 | -22.60541 | 172 ft | 15 kts | 179° |
| 2026-04-25 11:34 | 63.97443 | -22.60639 | 170 ft | 16 kts | 242° |
| 2026-04-25 11:35 | 63.97457 | -22.60896 | 165 ft | 17 kts | 298° |
| 2026-04-25 11:35 | 63.97521 | -22.60943 | 165 ft | 9 kts | 2° |
| 2026-04-25 11:35 | 63.97592 | -22.60939 | 166 ft | 11 kts | 357° |
| 2026-04-25 11:35 | 63.97684 | -22.60940 | 168 ft | 15 kts | 0° |
| 2026-04-25 11:36 | 63.97803 | -22.60939 | 169 ft | 19 kts | 359° |
| 2026-04-25 11:36 | 63.97952 | -22.60943 | 168 ft | 24 kts | 1° |
| 2026-04-25 11:36 | 63.98133 | -22.60940 | 166 ft | 28 kts | 0° |
| 2026-04-25 11:36 | 63.98326 | -22.60941 | 164 ft | 27 kts | 0° |
| 2026-04-25 11:37 | 63.98506 | -22.60938 | 168 ft | 25 kts | 359° |
| 2026-04-25 11:37 | 63.98673 | -22.60938 | 165 ft | 23 kts | 0° |
| 2026-04-25 11:37 | 63.98807 | -22.60939 | 164 ft | 13 kts | 0° |
| 2026-04-25 11:37 | 63.98897 | -22.60938 | 167 ft | 13 kts | 359° |
| 2026-04-25 11:38 | 63.98984 | -22.60939 | 169 ft | 12 kts | 360° |
| 2026-04-25 11:38 | 63.99074 | -22.60937 | 166 ft | 14 kts | 1° |
| 2026-04-25 11:38 | 63.99171 | -22.60999 | 161 ft | 16 kts | 293° |
| 2026-04-25 11:38 | 63.99174 | -22.61274 | 155 ft | 19 kts | 270° |
| 2026-04-25 11:39 | 63.99172 | -22.61592 | 148 ft | 21 kts | 270° |
| 2026-04-25 11:39 | 63.99172 | -22.61935 | 141 ft | 12 kts | 269° |
| 2026-04-25 11:39 | 63.99171 | -22.62125 | 141 ft | 12 kts | 270° |
| 2026-04-25 11:39 | 63.99179 | -22.62290 | 141 ft | 8 kts | 308° |
| 2026-04-25 11:40 | 63.99236 | -22.62304 | 141 ft | 8 kts | 1° |
| 2026-04-25 11:40 | 63.99271 | -22.62304 | 141 ft | 3 kts | 0° |
| 2026-04-25 11:40 | 63.99282 | -22.62304 | 141 ft | 1 kts | 1° |
| 2026-04-25 11:40 | 63.99284 | -22.62304 | 141 ft | 0 kts | 0° |